Time;durP1;ratioP1;P1;durP2;ratioP2;P2;SDS_P1;SDS_P2;PMS_P1;PMS_P2;Temp;Humidity;BMP_temperature;BMP_pressure;BME280_temperature;BME280_humidity;BME280_pressure;Samples;Min_cycle;Max_cycle;Signal;HPM_P1;HPM_P2
2023/01/13 00:00:03;;;;;;;10.70;2.23;;;10.60;99.90;;;;;;5093009;28;20631;-68
2023/01/13 00:02:29;;;;;;;8.30;2.20;;;10.60;99.90;;;;;;5092698;28;20535;-67
2023/01/13 00:04:54;;;;;;;5.93;1.90;;;10.60;99.90;;;;;;5093220;28;20628;-68
2023/01/13 00:07:20;;;;;;;7.87;2.13;;;10.60;99.90;;;;;;5093125;28;20340;-68
2023/01/13 00:09:46;;;;;;;7.00;1.90;;;10.60;99.90;;;;;;5093266;28;20176;-68
2023/01/13 00:12:11;;;;;;;11.67;2.50;;;10.60;99.90;;;;;;5092814;28;20607;-68
2023/01/13 00:14:37;;;;;;;7.30;2.30;;;10.50;99.90;;;;;;5093165;28;20175;-68
2023/01/13 00:17:03;;;;;;;10.90;2.03;;;10.60;99.90;;;;;;5092981;28;20559;-68
2023/01/13 00:19:29;;;;;;;7.53;1.80;;;10.50;99.90;;;;;;5093115;28;20168;-68
2023/01/13 00:21:55;;;;;;;11.73;2.50;;;10.50;99.90;;;;;;5093145;28;20198;-68
2023/01/13 00:24:21;;;;;;;13.97;2.73;;;10.50;99.90;;;;;;5091887;28;20649;-68
2023/01/13 00:26:46;;;;;;;10.37;2.13;;;10.50;99.90;;;;;;5092846;28;20172;-68
2023/01/13 00:29:12;;;;;;;10.00;2.47;;;10.40;99.90;;;;;;5093104;28;20887;-68
2023/01/13 00:31:38;;;;;;;10.97;3.00;;;10.40;99.90;;;;;;5093222;28;20198;-68
2023/01/13 00:34:03;;;;;;;11.10;2.57;;;10.40;99.90;;;;;;5092833;28;20171;-68
2023/01/13 00:36:30;;;;;;;11.93;2.50;;;10.30;99.90;;;;;;5092837;28;20207;-68
2023/01/13 00:38:56;;;;;;;13.33;3.00;;;10.30;99.90;;;;;;5092957;28;20172;-67
2023/01/13 00:41:23;;;;;;;15.27;2.90;;;10.20;99.90;;;;;;5092965;28;20213;-69
2023/01/13 00:43:49;;;;;;;18.10;3.33;;;10.20;99.90;;;;;;5092228;28;20354;-68
2023/01/13 00:46:17;;;;;;;19.10;3.20;;;10.20;99.90;;;;;;5093090;28;20174;-68
2023/01/13 00:48:43;;;;;;;17.83;3.40;;;10.10;99.90;;;;;;5092852;28;20172;-69
2023/01/13 00:51:15;;;;;;;16.83;3.53;;;10.00;99.90;;;;;;5092847;28;20175;-67
2023/01/13 00:53:44;;;;;;;16.77;2.97;;;10.00;99.90;;;;;;5093381;28;20176;-68
2023/01/13 00:56:21;;;;;;;16.20;2.97;;;9.90;99.90;;;;;;5096260;28;20206;-67
2023/01/13 00:58:47;;;;;;;15.90;2.93;;;9.80;99.90;;;;;;5096427;28;20207;-68
2023/01/13 01:01:19;;;;;;;11.43;2.30;;;9.80;99.90;;;;;;5096665;28;20639;-67
2023/01/13 01:03:50;;;;;;;11.40;2.50;;;9.80;99.90;;;;;;5096517;28;20168;-68
2023/01/13 01:06:18;;;;;;;11.10;2.40;;;9.70;99.90;;;;;;5096409;28;20267;-67
2023/01/13 01:08:44;;;;;;;14.37;3.00;;;9.60;99.90;;;;;;5096265;28;20171;-68
2023/01/13 01:11:17;;;;;;;11.40;3.13;;;9.60;99.90;;;;;;5096432;28;20183;-68
2023/01/13 01:13:43;;;;;;;15.97;3.00;;;9.60;99.90;;;;;;5095958;28;20168;-69
2023/01/13 01:16:11;;;;;;;19.43;2.73;;;9.60;99.90;;;;;;5096258;28;20269;-68
2023/01/13 01:18:39;;;;;;;13.77;2.90;;;9.60;99.90;;;;;;5096190;28;20180;-69
2023/01/13 01:21:06;;;;;;;15.93;2.90;;;9.50;99.90;;;;;;5096153;28;20233;-68
2023/01/13 01:23:33;;;;;;;16.60;2.90;;;9.50;99.90;;;;;;5096138;28;20190;-68
2023/01/13 01:26:07;;;;;;;16.73;3.30;;;9.50;99.90;;;;;;5095953;28;20168;-70
2023/01/13 01:28:33;;;;;;;10.47;2.50;;;9.50;99.90;;;;;;5095821;28;20172;-69
2023/01/13 01:31:00;;;;;;;12.30;2.90;;;9.50;99.90;;;;;;5096026;28;20172;-68
2023/01/13 01:33:26;;;;;;;8.53;2.63;;;9.50;99.90;;;;;;5095978;28;20242;-68
2023/01/13 01:35:53;;;;;;;11.53;2.33;;;9.50;99.90;;;;;;5095720;28;20175;-68
2023/01/13 01:38:21;;;;;;;11.30;2.47;;;9.50;99.90;;;;;;5095837;28;20172;-67
2023/01/13 01:40:47;;;;;;;16.37;2.97;;;9.50;99.90;;;;;;5095793;28;20164;-67
2023/01/13 01:46:02;;;;;;;13.90;2.90;;;9.40;99.90;;;;;;5095661;28;20207;-67
2023/01/13 01:48:33;;;;;;;8.50;3.10;;;9.40;99.90;;;;;;5095714;28;20615;-68
2023/01/13 01:50:59;;;;;;;10.17;2.43;;;9.30;99.90;;;;;;5095460;28;20179;-68
2023/01/13 01:53:26;;;;;;;7.23;2.40;;;9.30;99.90;;;;;;5095466;28;20179;-67
2023/01/13 01:55:53;;;;;;;13.33;2.70;;;9.30;99.90;;;;;;5095477;28;20183;-67
2023/01/13 01:58:44;;;;;;;10.83;2.47;;;9.20;99.90;;;;;;5095155;28;20184;-67
2023/01/13 02:01:11;;;;;;;10.10;2.37;;;9.20;99.90;;;;;;5095446;28;20251;-68
2023/01/13 02:03:40;;;;;;;11.73;2.63;;;9.10;99.90;;;;;;5095235;28;20282;-67
2023/01/13 02:06:07;;;;;;;9.43;2.60;;;9.20;99.90;;;;;;5094623;28;20523;-67
2023/01/13 02:08:33;;;;;;;8.90;2.40;;;9.20;99.90;;;;;;5095223;28;20172;-67
2023/01/13 02:10:59;;;;;;;9.50;2.33;;;9.20;99.90;;;;;;5094964;28;20207;-67
2023/01/13 02:13:24;;;;;;;13.37;2.50;;;9.10;99.90;;;;;;5095258;28;20182;-68
2023/01/13 02:16:23;;;;;;;8.50;2.10;;;9.10;99.90;;;;;;5095007;28;20175;-68
2023/01/13 02:19:23;;;;;;;11.67;2.50;;;9.00;99.90;;;;;;5012892;28;20280;-67
2023/01/13 02:22:00;;;;;;;6.27;1.93;;;8.90;99.90;;;;;;4972122;28;20646;-68
2023/01/13 02:24:54;;;;;;;12.20;2.50;;;8.90;99.90;;;;;;5012917;28;20257;-68
2023/01/13 02:27:40;;;;;;;9.27;2.60;;;8.90;99.90;;;;;;5012481;28;20510;-67
2023/01/13 02:33:27;;;;;;;13.07;2.80;;;8.90;99.90;;;;;;5012699;28;20178;-67
2023/01/13 02:36:10;;;;;;;10.10;2.80;;;8.90;99.90;;;;;;4979956;28;20187;-68
2023/01/13 02:38:43;;;;;;;17.50;3.00;;;9.00;99.90;;;;;;5012633;28;20674;-67
2023/01/13 02:44:06;;;;;;;10.13;2.43;;;9.10;99.90;;;;;;5012321;28;20301;-67
2023/01/13 02:46:58;;;;;;;13.17;2.13;;;9.20;99.90;;;;;;5012252;28;20639;-67
2023/01/13 02:49:37;;;;;;;8.57;2.47;;;9.20;99.90;;;;;;5012584;28;20175;-66
2023/01/13 02:52:31;;;;;;;13.87;2.70;;;9.30;99.90;;;;;;5012259;28;20178;-68
2023/01/13 02:55:11;;;;;;;9.13;2.30;;;9.30;99.90;;;;;;5071504;28;20674;-68
2023/01/13 02:57:38;;;;;;;13.40;2.37;;;9.30;99.90;;;;;;5094198;28;20215;-67
2023/01/13 03:00:06;;;;;;;9.00;2.20;;;9.30;99.90;;;;;;5094621;28;20168;-67
2023/01/13 03:02:32;;;;;;;9.17;2.50;;;9.30;99.90;;;;;;5093980;28;20171;-67
2023/01/13 03:04:59;;;;;;;8.93;2.30;;;9.40;99.90;;;;;;5094128;28;20171;-67
2023/01/13 03:07:43;;;;;;;16.03;2.73;;;9.50;99.90;;;;;;5093754;28;20227;-67
2023/01/13 03:10:14;;;;;;;12.87;2.73;;;9.40;99.90;;;;;;5093812;28;20194;-67
2023/01/13 03:13:01;;;;;;;16.10;2.67;;;9.50;99.90;;;;;;5093876;28;20196;-67
2023/01/13 03:15:52;;;;;;;14.50;2.53;;;9.40;99.90;;;;;;5094107;28;20213;-68
2023/01/13 03:18:55;;;;;;;16.03;2.80;;;9.50;99.90;;;;;;5093547;28;20226;-67
2023/01/13 03:21:47;;;;;;;12.53;3.30;;;9.50;99.90;;;;;;5093921;28;20168;-66
2023/01/13 03:24:18;;;;;;;9.27;2.57;;;9.60;99.90;;;;;;5093764;28;20250;-67
2023/01/13 03:27:14;;;;;;;13.63;2.83;;;9.60;99.90;;;;;;5093952;28;20163;-68
2023/01/13 03:30:02;;;;;;;11.17;2.40;;;9.60;99.90;;;;;;5093326;28;20184;-68
2023/01/13 03:32:43;;;;;;;9.00;2.43;;;9.60;99.90;;;;;;5093508;28;20168;-69
2023/01/13 03:35:18;;;;;;;7.83;2.10;;;9.70;99.90;;;;;;5093775;28;20255;-68
2023/01/13 03:37:50;;;;;;;13.70;2.23;;;9.60;99.90;;;;;;5093219;28;20302;-68
2023/01/13 03:40:21;;;;;;;8.80;2.37;;;9.60;99.90;;;;;;5093707;28;20649;-67
2023/01/13 03:45:51;;;;;;;14.47;2.37;;;9.70;99.90;;;;;;5093728;28;20215;-68
2023/01/13 03:48:19;;;;;;;8.43;2.27;;;9.50;99.90;;;;;;5092254;28;20262;-68
2023/01/13 03:50:51;;;;;;;8.60;1.90;;;9.50;99.90;;;;;;5093453;28;20171;-68
2023/01/13 03:53:30;;;;;;;7.90;1.87;;;9.40;99.90;;;;;;5092891;28;20168;-67
2023/01/13 03:56:06;;;;;;;8.70;2.23;;;9.40;99.90;;;;;;5093225;28;20176;-68
2023/01/13 03:58:37;;;;;;;4.77;1.53;;;9.50;99.90;;;;;;5093387;28;20225;-68
2023/01/13 04:01:12;;;;;;;7.70;2.00;;;9.40;99.90;;;;;;5093336;28;20635;-68
2023/01/13 04:03:43;;;;;;;8.13;2.03;;;9.40;99.90;;;;;;5093269;28;20175;-67
2023/01/13 04:06:28;;;;;;;8.53;2.17;;;9.40;99.90;;;;;;5093377;28;20232;-68
2023/01/13 04:09:04;;;;;;;10.70;2.23;;;9.30;99.90;;;;;;5092902;28;20164;-67
2023/01/13 04:11:43;;;;;;;10.80;2.10;;;9.30;99.90;;;;;;5093073;28;20170;-67
2023/01/13 04:14:11;;;;;;;7.33;1.87;;;9.30;99.90;;;;;;5093096;28;20199;-67
2023/01/13 04:16:38;;;;;;;9.97;2.13;;;9.30;99.90;;;;;;5093305;28;20210;-69
2023/01/13 04:19:03;;;;;;;7.93;2.17;;;9.20;99.90;;;;;;5092791;28;20221;-68
2023/01/13 04:21:30;;;;;;;11.63;2.20;;;9.20;99.90;;;;;;5092485;28;20164;-69
2023/01/13 04:23:55;;;;;;;6.33;1.83;;;9.20;99.90;;;;;;5092949;28;20210;-68
2023/01/13 04:26:22;;;;;;;10.27;2.40;;;9.20;99.90;;;;;;5092969;28;20172;-68
2023/01/13 04:28:48;;;;;;;6.30;2.03;;;9.20;99.90;;;;;;5095236;28;20164;-68
2023/01/13 04:31:13;;;;;;;10.00;2.50;;;9.20;99.90;;;;;;5097301;28;20171;-68
2023/01/13 04:33:40;;;;;;;7.40;1.80;;;9.30;99.90;;;;;;5096909;28;20533;-68
2023/01/13 04:36:05;;;;;;;7.07;1.70;;;9.30;99.90;;;;;;5096683;28;20240;-69
2023/01/13 04:38:31;;;;;;;7.37;2.17;;;9.30;99.90;;;;;;5096774;28;20698;-69
2023/01/13 04:40:57;;;;;;;8.80;2.37;;;9.40;99.90;;;;;;5096460;28;20222;-68
2023/01/13 04:43:22;;;;;;;9.77;2.00;;;9.40;99.90;;;;;;5096452;28;20262;-68
2023/01/13 04:45:48;;;;;;;7.37;2.20;;;9.40;99.90;;;;;;5096389;28;20511;-68
2023/01/13 04:48:13;;;;;;;7.47;1.83;;;9.30;99.90;;;;;;5096685;28;20214;-68
2023/01/13 04:50:39;;;;;;;9.10;2.10;;;9.30;99.90;;;;;;5096265;28;20237;-68
2023/01/13 04:53:05;;;;;;;6.83;1.73;;;9.30;99.90;;;;;;5096064;28;20175;-68
2023/01/13 04:55:31;;;;;;;4.67;1.70;;;9.40;99.90;;;;;;5095885;28;20269;-68
2023/01/13 04:58:08;;;;;;;7.20;2.33;;;9.30;99.90;;;;;;5096320;28;20219;-67
2023/01/13 05:00:34;;;;;;;6.43;1.80;;;9.20;99.90;;;;;;5096243;28;20170;-68
2023/01/13 05:03:00;;;;;;;8.47;1.97;;;9.20;99.90;;;;;;5096195;28;20168;-69
2023/01/13 05:05:27;;;;;;;6.77;1.93;;;9.10;99.90;;;;;;5095664;28;20233;-68
2023/01/13 05:07:52;;;;;;;16.43;2.57;;;9.10;99.90;;;;;;5095777;28;20223;-68
2023/01/13 05:10:18;;;;;;;6.70;1.80;;;9.00;99.90;;;;;;5096055;28;20203;-68
2023/01/13 05:18:14;;;;;;;12.20;2.50;;;8.90;99.90;;;;;;5096041;28;20291;-69
2023/01/13 05:20:40;;;;;;;10.20;1.80;;;8.80;99.90;;;;;;5094182;28;20573;-68
2023/01/13 05:25:50;;;;;;;9.53;1.93;;;8.70;99.90;;;;;;5095663;28;20646;-68
2023/01/13 05:28:15;;;;;;;6.47;1.90;;;8.70;99.90;;;;;;5095600;28;20180;-68
2023/01/13 05:30:44;;;;;;;9.27;2.17;;;8.70;99.90;;;;;;5095818;28;20179;-68
2023/01/13 05:33:16;;;;;;;9.57;2.07;;;8.70;99.90;;;;;;5095381;28;20176;-68
2023/01/13 05:35:44;;;;;;;10.47;2.50;;;8.60;99.90;;;;;;5095678;28;20176;-67
2023/01/13 05:38:10;;;;;;;11.30;2.27;;;8.60;99.90;;;;;;5095342;28;20211;-69
2023/01/13 05:43:24;;;;;;;9.97;2.17;;;8.60;99.90;;;;;;5095085;28;20225;-68
2023/01/13 05:46:05;;;;;;;10.20;2.17;;;8.50;99.90;;;;;;5095290;28;20176;-67
2023/01/13 05:48:36;;;;;;;8.07;1.80;;;8.40;99.90;;;;;;5094670;28;20178;-68
2023/01/13 05:51:03;;;;;;;8.80;2.13;;;8.50;99.90;;;;;;5094879;28;20168;-67
2023/01/13 05:53:29;;;;;;;11.73;2.57;;;8.50;99.90;;;;;;5094447;28;20221;-68
2023/01/13 05:55:55;;;;;;;9.77;1.87;;;8.40;99.90;;;;;;5095197;28;20172;-67
2023/01/13 05:58:23;;;;;;;8.70;2.23;;;8.40;99.90;;;;;;5095047;28;20256;-68
2023/01/13 06:00:49;;;;;;;9.87;2.00;;;8.40;99.90;;;;;;5094610;28;20615;-68
2023/01/13 06:03:15;;;;;;;11.80;2.50;;;8.40;99.90;;;;;;5094376;28;20172;-69
2023/01/13 06:05:41;;;;;;;9.40;2.43;;;8.40;99.90;;;;;;5094710;28;20583;-68
2023/01/13 06:08:07;;;;;;;13.30;2.17;;;8.40;99.90;;;;;;5094094;28;20712;-68
2023/01/13 06:10:34;;;;;;;9.40;1.73;;;8.40;99.90;;;;;;5093869;28;20182;-68
2023/01/13 06:13:00;;;;;;;8.90;2.23;;;8.30;99.90;;;;;;5093833;28;20206;-68
2023/01/13 06:15:26;;;;;;;5.23;1.80;;;8.40;99.90;;;;;;5094689;28;20168;-69
2023/01/13 06:17:52;;;;;;;6.17;2.30;;;8.40;99.90;;;;;;5093784;28;20212;-68
2023/01/13 06:20:18;;;;;;;15.13;2.40;;;8.40;99.90;;;;;;5094170;28;20198;-68
2023/01/13 06:22:49;;;;;;;10.83;2.40;;;8.40;99.90;;;;;;5093736;28;20274;-68
2023/01/13 06:25:37;;;;;;;15.27;2.80;;;8.30;99.90;;;;;;5093069;28;20168;-68
2023/01/13 06:28:03;;;;;;;12.80;2.97;;;8.20;99.90;;;;;;5093907;28;20183;-68
2023/01/13 06:30:33;;;;;;;13.23;2.83;;;8.20;99.90;;;;;;5093826;28;20646;-68
2023/01/13 06:33:03;;;;;;;10.70;2.80;;;8.30;99.90;;;;;;5093162;28;20232;-69
2023/01/13 06:35:33;;;;;;;15.23;3.10;;;8.30;99.90;;;;;;5093285;28;20196;-68
2023/01/13 06:38:02;;;;;;;17.73;3.53;;;8.30;99.90;;;;;;5093539;28;20708;-68
2023/01/13 06:40:28;;;;;;;18.00;3.30;;;8.30;99.90;;;;;;5093470;28;20168;-68
2023/01/13 06:45:42;;;;;;;16.97;3.40;;;8.40;99.90;;;;;;5092958;28;20250;-69
2023/01/13 06:48:08;;;;;;;15.73;3.53;;;8.30;99.90;;;;;;5092660;28;20262;-69
2023/01/13 06:50:33;;;;;;;19.60;3.87;;;8.40;99.90;;;;;;5093303;28;20596;-69
2023/01/13 06:52:59;;;;;;;17.67;3.63;;;8.40;99.90;;;;;;5093192;28;20304;-68
2023/01/13 06:55:24;;;;;;;20.90;5.07;;;8.40;99.90;;;;;;5093430;28;20235;-68
2023/01/13 06:57:52;;;;;;;17.53;4.37;;;8.40;99.90;;;;;;5092518;28;20222;-68
2023/01/13 07:00:19;;;;;;;16.87;3.77;;;8.40;99.90;;;;;;5092600;28;20188;-70
2023/01/13 07:02:45;;;;;;;17.13;3.47;;;8.40;99.90;;;;;;5093131;28;20202;-69
2023/01/13 07:05:11;;;;;;;21.20;3.50;;;8.50;99.90;;;;;;5093154;28;20678;-69
2023/01/13 07:07:37;;;;;;;17.33;3.53;;;8.40;99.90;;;;;;5092496;28;20608;-69
2023/01/13 07:10:03;;;;;;;12.67;2.80;;;8.40;99.90;;;;;;5092899;28;20167;-68
2023/01/13 07:12:29;;;;;;;24.10;4.33;;;8.50;99.90;;;;;;5092398;28;20179;-69
2023/01/13 07:17:39;;;;;;;18.40;4.33;;;8.50;99.90;;;;;;5092829;28;20612;-68
2023/01/13 07:20:05;;;;;;;27.57;4.27;;;8.50;99.90;;;;;;5092534;28;20171;-69
2023/01/13 07:22:31;;;;;;;17.73;3.60;;;8.40;99.90;;;;;;5092712;28;20168;-69
2023/01/13 07:24:56;;;;;;;22.83;3.70;;;8.40;99.90;;;;;;5092911;28;20182;-68
2023/01/13 07:27:22;;;;;;;20.33;4.20;;;8.50;99.90;;;;;;5092512;28;20568;-68
2023/01/13 07:29:48;;;;;;;16.47;4.70;;;8.50;99.90;;;;;;5091664;28;20246;-68
2023/01/13 07:32:14;;;;;;;17.27;3.77;;;8.50;99.90;;;;;;5092533;28;20171;-68
2023/01/13 07:34:40;;;;;;;23.57;4.17;;;8.50;99.90;;;;;;5092241;28;20277;-67
2023/01/13 07:37:05;;;;;;;15.13;3.93;;;8.50;99.90;;;;;;5091381;28;20249;-69
2023/01/13 07:39:31;;;;;;;19.93;4.07;;;8.50;99.90;;;;;;5091965;28;20603;-68
2023/01/13 07:44:40;;;;;;;22.37;4.07;;;8.60;99.90;;;;;;5091000;28;20273;-68
2023/01/13 07:47:09;;;;;;;19.27;4.20;;;8.50;99.90;;;;;;5092052;28;20172;-67
2023/01/13 07:49:34;;;;;;;22.30;4.23;;;8.40;99.90;;;;;;5092660;28;20200;-68
2023/01/13 07:52:00;;;;;;;17.90;3.70;;;8.40;99.90;;;;;;5092097;28;20649;-68
2023/01/13 07:54:26;;;;;;;20.00;3.83;;;8.40;99.90;;;;;;5077128;28;20176;-69
2023/01/13 07:56:51;;;;;;;23.43;4.77;;;8.50;99.90;;;;;;5070128;28;20211;-68
2023/01/13 07:59:17;;;;;;;16.07;3.57;;;8.40;99.90;;;;;;5070121;28;20168;-69
2023/01/13 08:01:43;;;;;;;30.07;3.87;;;8.40;99.90;;;;;;5071968;28;20194;-67
2023/01/13 08:04:08;;;;;;;18.33;4.00;;;8.50;99.90;;;;;;5076420;28;20205;-68
2023/01/13 08:06:35;;;;;;;19.73;3.67;;;8.50;99.90;;;;;;5087735;28;20203;-69
2023/01/13 08:09:01;;;;;;;19.77;3.47;;;8.60;99.90;;;;;;5098818;28;20190;-69
2023/01/13 08:11:26;;;;;;;17.83;3.90;;;8.60;99.90;;;;;;5098228;28;20171;-69
2023/01/13 08:13:56;;;;;;;19.70;4.63;;;8.70;99.90;;;;;;5090083;28;20184;-68
2023/01/13 08:16:22;;;;;;;25.27;4.10;;;8.90;99.90;;;;;;5089398;28;20203;-69
2023/01/13 08:18:48;;;;;;;16.50;3.73;;;8.90;99.90;;;;;;5081568;28;20207;-68
2023/01/13 08:21:14;;;;;;;19.50;4.03;;;9.00;99.90;;;;;;5089523;28;20240;-69
2023/01/13 08:23:42;;;;;;;21.03;4.23;;;9.00;99.90;;;;;;5078571;28;20178;-69
2023/01/13 08:26:10;;;;;;;18.13;3.80;;;9.00;99.90;;;;;;5084907;28;20198;-68
2023/01/13 08:28:36;;;;;;;22.23;4.23;;;9.00;99.90;;;;;;5098796;28;20677;-70
2023/01/13 08:31:04;;;;;;;22.07;3.83;;;9.00;99.90;;;;;;5098923;28;20178;-68
2023/01/13 08:33:30;;;;;;;12.73;3.10;;;9.10;99.90;;;;;;5098772;28;20576;-69
2023/01/13 08:35:56;;;;;;;24.70;4.47;;;9.10;99.90;;;;;;5098620;28;20168;-68
2023/01/13 08:38:22;;;;;;;14.27;3.87;;;9.20;99.90;;;;;;5098134;28;20215;-68
2023/01/13 08:40:48;;;;;;;18.53;3.90;;;9.40;99.90;;;;;;5096376;28;20180;-70
2023/01/13 08:43:14;;;;;;;12.67;3.50;;;9.80;99.90;;;;;;5096132;28;20251;-68
2023/01/13 08:45:40;;;;;;;18.53;3.53;;;10.30;99.90;;;;;;5088760;28;20267;-69
2023/01/13 08:48:05;;;;;;;20.53;4.00;;;10.40;99.90;;;;;;5078175;28;20172;-69
2023/01/13 08:50:31;;;;;;;14.70;3.77;;;10.70;99.90;;;;;;5080682;28;20165;-69
2023/01/13 08:52:57;;;;;;;18.83;4.10;;;10.70;99.90;;;;;;5081861;28;20688;-67
2023/01/13 08:55:24;;;;;;;13.83;3.83;;;10.70;99.90;;;;;;5077711;28;20287;-68
2023/01/13 08:57:49;;;;;;;17.60;4.17;;;10.50;99.90;;;;;;5077337;28;20312;-69
2023/01/13 09:00:16;;;;;;;22.27;4.23;;;10.30;99.90;;;;;;5077985;28;20623;-69
2023/01/13 09:02:41;;;;;;;14.63;3.80;;;10.20;99.90;;;;;;5077691;28;20177;-68
2023/01/13 09:05:08;;;;;;;19.40;4.30;;;10.40;99.90;;;;;;5078175;28;20175;-68
2023/01/13 09:07:35;;;;;;;17.40;4.20;;;10.60;99.90;;;;;;5078120;28;20224;-69
2023/01/13 09:10:03;;;;;;;14.43;3.53;;;10.60;99.90;;;;;;5078146;28;20698;-69
2023/01/13 09:15:17;;;;;;;14.60;3.60;;;10.60;99.90;;;;;;5075074;28;20639;-69
2023/01/13 09:17:43;;;;;;;15.70;4.20;;;10.80;99.90;;;;;;5088017;28;20303;-70
2023/01/13 09:20:09;;;;;;;23.20;3.93;;;11.10;99.90;;;;;;5095236;28;20176;-70
2023/01/13 09:22:36;;;;;;;20.27;3.87;;;11.50;99.90;;;;;;5095375;28;20476;-71
2023/01/13 09:25:02;;;;;;;17.73;4.03;;;12.00;99.90;;;;;;5095286;28;20168;-70
2023/01/13 09:27:28;;;;;;;16.27;4.10;;;12.30;99.90;;;;;;5094929;28;20180;-69
2023/01/13 09:29:53;;;;;;;20.07;4.37;;;11.90;99.90;;;;;;5090529;28;20195;-69
2023/01/13 09:32:19;;;;;;;17.20;4.33;;;11.40;99.90;;;;;;5094889;28;20176;-69
2023/01/13 09:35:00;;;;;;;29.83;4.57;;;11.10;99.90;;;;;;5080304;28;20181;-69
2023/01/13 09:37:34;;;;;;;22.53;4.73;;;11.10;99.90;;;;;;5074432;28;20212;-70
2023/01/13 09:40:05;;;;;;;19.10;4.40;;;11.40;99.90;;;;;;5075001;28;20176;-70
2023/01/13 09:45:41;;;;;;;18.30;4.50;;;11.40;99.90;;;;;;5077517;28;20265;-70
2023/01/13 09:48:13;;;;;;;18.90;3.73;;;11.30;99.90;;;;;;5093940;28;20176;-69
2023/01/13 09:50:56;;;;;;;15.20;3.40;;;11.20;99.90;;;;;;5094254;28;20723;-69
2023/01/13 09:53:31;;;;;;;18.13;4.33;;;11.10;99.90;;;;;;5094005;28;20292;-69
2023/01/13 09:55:56;;;;;;;18.67;4.63;;;11.10;99.90;;;;;;5086413;28;20269;-69
2023/01/13 09:58:23;;;;;;;28.63;10.90;;;11.00;99.90;;;;;;5073866;28;20236;-68
2023/01/13 10:01:01;;;;;;;20.23;3.67;;;11.00;99.90;;;;;;5074385;28;20184;-69
2023/01/13 10:03:29;;;;;;;16.00;4.23;;;10.90;99.90;;;;;;5073844;28;20251;-70
2023/01/13 10:06:16;;;;;;;17.67;4.10;;;10.80;99.90;;;;;;5074221;28;20260;-69
2023/01/13 10:08:44;;;;;;;13.77;3.57;;;10.60;99.90;;;;;;5073852;28;20354;-69
2023/01/13 10:14:17;;;;;;;20.50;3.63;;;10.40;99.90;;;;;;5073771;28;20192;-69
2023/01/13 10:17:01;;;;;;;18.30;4.03;;;10.30;99.90;;;;;;5077708;28;20683;-69
2023/01/13 10:19:48;;;;;;;17.87;3.90;;;10.40;99.90;;;;;;5093385;28;20191;-69
2023/01/13 10:22:18;;;;;;;19.17;4.17;;;10.30;99.90;;;;;;5076936;28;20168;-69
2023/01/13 10:24:52;;;;;;;17.83;4.50;;;10.30;99.90;;;;;;5093409;28;20677;-69
2023/01/13 10:27:33;;;;;;;20.17;4.70;;;10.40;99.90;;;;;;5094083;28;20198;-69
2023/01/13 10:30:26;;;;;;;23.27;5.57;;;10.40;99.90;;;;;;5089525;28;20233;-69
2023/01/13 10:32:57;;;;;;;17.97;4.00;;;10.30;99.90;;;;;;5094022;28;20164;-69
2023/01/13 10:35:49;;;;;;;14.47;3.90;;;10.50;99.90;;;;;;5093869;28;20234;-69
2023/01/13 10:38:21;;;;;;;22.33;4.53;;;10.70;99.90;;;;;;5093258;28;20257;-69
2023/01/13 10:40:50;;;;;;;17.90;4.43;;;10.70;99.90;;;;;;5093834;28;20195;-68
2023/01/13 10:43:15;;;;;;;20.57;4.43;;;10.70;99.90;;;;;;5093181;28;20195;-68
2023/01/13 10:45:57;;;;;;;25.50;4.33;;;10.50;99.90;;;;;;5082666;28;20256;-70
2023/01/13 10:48:35;;;;;;;19.67;4.17;;;10.30;99.90;;;;;;5074388;28;20584;-72
2023/01/13 10:51:13;;;;;;;19.67;4.10;;;10.00;99.90;;;;;;5089196;28;20219;-69
2023/01/13 10:53:52;;;;;;;21.03;4.47;;;9.90;99.90;;;;;;5090757;28;20179;-71
2023/01/13 10:56:20;;;;;;;20.10;7.37;;;9.90;99.90;;;;;;5072969;28;20180;-69
2023/01/13 10:58:45;;;;;;;39.17;13.60;;;9.80;99.90;;;;;;5073131;28;20169;-71
2023/01/13 11:01:24;;;;;;;28.10;9.80;;;9.80;99.90;;;;;;5073017;28;20572;-71
2023/01/13 11:03:54;;;;;;;27.63;5.37;;;9.90;99.90;;;;;;5072616;28;20164;-70
2023/01/13 11:06:26;;;;;;;24.67;4.77;;;9.90;99.90;;;;;;5076474;28;20200;-70
2023/01/13 11:08:54;;;;;;;20.13;5.90;;;10.00;99.90;;;;;;5091263;28;20196;-73
2023/01/13 11:11:45;;;;;;;20.73;5.17;;;10.10;99.90;;;;;;5093036;28;20150;-74
2023/01/13 11:14:42;;;;;;;21.87;5.33;;;10.10;99.90;;;;;;5099262;28;20238;-72
2023/01/13 11:17:39;;;;;;;19.73;4.67;;;10.10;99.90;;;;;;5073535;28;20208;-72
2023/01/13 11:20:10;;;;;;;17.83;5.27;;;10.00;99.90;;;;;;5092049;28;20176;-71
2023/01/13 11:22:59;;;;;;;13.80;3.47;;;10.10;99.90;;;;;;5072434;28;20207;-71
2023/01/13 11:25:40;;;;;;;17.30;4.40;;;10.10;99.90;;;;;;5073929;28;20291;-72
2023/01/13 11:28:19;;;;;;;21.77;4.83;;;10.10;99.90;;;;;;5092498;28;20174;-71
2023/01/13 11:31:14;;;;;;;21.53;5.00;;;10.20;99.90;;;;;;5092855;28;20175;-72
2023/01/13 11:33:47;;;;;;;25.73;4.83;;;10.20;99.90;;;;;;5072455;28;20172;-72
2023/01/13 11:36:20;;;;;;;23.50;6.60;;;10.20;99.90;;;;;;5071920;28;20165;-70
2023/01/13 11:38:53;;;;;;;15.53;4.73;;;10.30;99.90;;;;;;5071449;28;20180;-71
2023/01/13 11:41:27;;;;;;;19.90;4.53;;;10.20;99.90;;;;;;5075400;28;20206;-72
2023/01/13 11:44:13;;;;;;;17.67;4.30;;;10.10;99.90;;;;;;5098548;28;20223;-71
2023/01/13 11:46:39;;;;;;;20.17;4.00;;;10.00;99.90;;;;;;5097220;28;20635;-73
2023/01/13 11:49:05;;;;;;;22.47;4.40;;;10.10;99.90;;;;;;5101916;28;20175;-71
2023/01/13 11:51:37;;;;;;;15.23;3.33;;;10.10;99.90;;;;;;5101354;28;20633;-73
2023/01/13 11:54:08;;;;;;;19.13;6.50;;;10.10;99.90;;;;;;5112658;28;20296;-72
2023/01/13 11:56:34;;;;;;;16.10;3.77;;;10.20;99.90;;;;;;5111971;28;20194;-73
2023/01/13 11:59:18;;;;;;;18.80;4.27;;;10.10;99.90;;;;;;5112041;28;20188;-73
2023/01/13 12:02:21;;;;;;;17.92;4.53;;;10.20;99.90;;;;;;5092627;28;20417;-70
2023/01/13 12:04:50;;;;;;;19.07;4.00;;;10.30;99.90;;;;;;5086745;28;20190;-70
2023/01/13 12:07:34;;;;;;;17.37;4.47;;;10.20;99.90;;;;;;5092132;28;20225;-70
2023/01/13 12:10:18;;;;;;;14.03;4.00;;;10.30;99.90;;;;;;5090537;28;20578;-70
2023/01/13 12:12:55;;;;;;;13.17;3.57;;;10.30;99.90;;;;;;5087146;28;20176;-71
2023/01/13 12:15:23;;;;;;;16.80;3.50;;;10.30;99.90;;;;;;5071640;28;20243;-71
2023/01/13 12:18:15;;;;;;;16.70;4.13;;;10.40;99.90;;;;;;5088267;28;20277;-75
2023/01/13 12:21:03;;;;;;;13.53;3.87;;;10.40;99.90;;;;;;5098623;28;20171;-73
2023/01/13 12:23:56;;;;;;;15.87;3.40;;;10.40;99.90;;;;;;5091963;28;20225;-72
2023/01/13 12:26:22;;;;;;;20.33;4.53;;;10.50;99.90;;;;;;5090450;28;20172;-71
2023/01/13 12:29:05;;;;;;;22.03;8.70;;;10.50;99.90;;;;;;5086985;28;20540;-71
2023/01/13 12:31:36;;;;;;;14.20;3.17;;;10.50;99.90;;;;;;5084213;28;20180;-71
2023/01/13 12:34:27;;;;;;;21.03;3.77;;;10.60;99.90;;;;;;5071547;28;20523;-70
2023/01/13 12:37:08;;;;;;;14.40;3.50;;;10.50;99.90;;;;;;5067831;28;20205;-72
2023/01/13 12:39:51;;;;;;;17.13;3.50;;;10.50;99.90;;;;;;5071374;28;20233;-71
2023/01/13 12:45:18;;;;;;;16.93;4.17;;;10.50;99.90;;;;;;5079258;28;20884;-71
2023/01/13 12:47:47;;;;;;;16.93;3.47;;;10.50;99.90;;;;;;5070748;28;20165;-71
2023/01/13 12:50:24;;;;;;;13.43;4.10;;;10.50;99.90;;;;;;5084690;28;20172;-72
2023/01/13 12:53:15;;;;;;;16.93;3.37;;;10.40;99.90;;;;;;5094615;28;20184;-71
2023/01/13 12:55:40;;;;;;;17.13;3.10;;;10.40;99.90;;;;;;5081243;28;20203;-70
2023/01/13 12:58:09;;;;;;;18.13;3.83;;;10.40;99.90;;;;;;5094976;28;20587;-70
2023/01/13 13:00:39;;;;;;;17.20;3.37;;;10.30;99.90;;;;;;5095037;28;20172;-71
2023/01/13 13:03:11;;;;;;;16.13;4.43;;;10.20;99.90;;;;;;5094647;28;20218;-70
2023/01/13 13:05:51;;;;;;;19.13;4.03;;;10.20;99.90;;;;;;5094750;28;20188;-71
2023/01/13 13:08:31;;;;;;;21.83;4.40;;;10.20;99.90;;;;;;5095330;28;20168;-71
2023/01/13 13:14:04;;;;;;;20.67;6.53;;;10.20;99.90;;;;;;5112004;28;20231;-71
2023/01/13 13:16:29;;;;;;;13.90;3.07;;;10.30;99.90;;;;;;5115556;28;20185;-71
2023/01/13 13:19:18;;;;;;;19.50;3.63;;;10.30;99.90;;;;;;5115184;28;20555;-72
2023/01/13 13:22:11;;;;;;;18.83;3.80;;;10.50;99.90;;;;;;5107829;28;20187;-71
2023/01/13 13:24:41;;;;;;;16.50;4.07;;;10.60;99.90;;;;;;5094847;28;20168;-72
2023/01/13 13:27:34;;;;;;;20.60;4.00;;;10.60;99.90;;;;;;5095012;28;20183;-71
2023/01/13 13:30:01;;;;;;;20.57;4.33;;;10.70;99.90;;;;;;5094775;28;20167;-71
2023/01/13 13:32:52;;;;;;;16.03;4.80;;;10.60;99.90;;;;;;5094141;28;20180;-72
2023/01/13 13:35:30;;;;;;;13.67;3.90;;;10.70;99.90;;;;;;5094825;28;20191;-71
2023/01/13 13:46:49;;;;;;;12.20;3.40;;;10.70;99.90;;;;;;5086632;28;20194;-70
2023/01/13 13:49:20;;;;;;;16.73;4.00;;;10.80;99.90;;;;;;5073823;28;20173;-69
2023/01/13 13:51:57;;;;;;;12.80;3.00;;;10.90;99.90;;;;;;5074498;28;20168;-71
2023/01/13 13:54:23;;;;;;;15.73;3.27;;;10.80;99.90;;;;;;5085132;28;20174;-71
2023/01/13 13:56:50;;;;;;;12.33;3.60;;;10.80;99.90;;;;;;5094271;28;20200;-71
2023/01/13 13:59:22;;;;;;;17.30;3.57;;;10.90;99.90;;;;;;5094397;28;20156;-70
2023/01/13 14:02:00;;;;;;;15.30;3.73;;;10.90;99.90;;;;;;5092896;28;20186;-71